createdAt,value
2022-10-17T00:00:58.089Z,16.25
2022-10-17T00:03:25.004Z,16.24
2022-10-17T00:05:51.896Z,16.23
2022-10-17T00:08:20.084Z,16.20
2022-10-17T00:10:57.804Z,16.18
2022-10-17T00:13:25.270Z,16.20
2022-10-17T00:15:52.271Z,16.20
2022-10-17T00:18:19.159Z,16.19
2022-10-17T00:20:46.175Z,16.19
2022-10-17T00:23:13.043Z,16.18
2022-10-17T00:25:40.646Z,16.21
2022-10-17T00:28:11.296Z,16.20
2022-10-17T00:30:38.541Z,16.17
2022-10-17T00:33:05.890Z,16.22
2022-10-17T00:35:33.468Z,16.23
2022-10-17T00:38:00.335Z,16.24
2022-10-17T00:40:27.300Z,16.26
2022-10-17T00:42:54.175Z,16.26
2022-10-17T00:45:28.644Z,16.26
2022-10-17T00:48:09.767Z,16.25
2022-10-17T00:50:39.120Z,16.26
2022-10-17T00:53:08.245Z,16.26
2022-10-17T00:55:44.520Z,16.26
2022-10-17T00:58:11.516Z,16.24
2022-10-17T01:00:38.411Z,16.22
2022-10-17T01:03:05.298Z,16.20
2022-10-17T01:05:32.447Z,16.19
2022-10-17T01:07:59.568Z,16.18
2022-10-17T01:11:02.476Z,16.18
2022-10-17T01:13:41.451Z,16.19
2022-10-17T01:16:42.103Z,16.23
2022-10-17T01:19:49.045Z,16.25
2022-10-17T01:22:23.980Z,16.27
2022-10-17T01:25:19.321Z,16.27
2022-10-17T01:28:04.279Z,16.26
2022-10-17T01:31:07.665Z,16.29
2022-10-17T01:34:02.787Z,16.30
2022-10-17T01:36:40.920Z,16.32
2022-10-17T01:39:36.846Z,16.32
2022-10-17T01:42:32.828Z,16.34
2022-10-17T01:45:12.162Z,16.35
2022-10-17T01:47:41.754Z,16.38
2022-10-17T01:50:20.292Z,16.40
2022-10-17T01:52:53.622Z,16.41
2022-10-17T01:55:30.711Z,16.45
2022-10-17T01:58:07.993Z,16.47
2022-10-17T02:00:37.832Z,16.49
2022-10-17T02:03:09.312Z,16.48
2022-10-17T02:05:40.976Z,16.52
2022-10-17T02:08:08.220Z,16.55
2022-10-17T02:11:02.514Z,16.56
2022-10-17T02:14:04.779Z,16.56
2022-10-17T02:16:51.921Z,16.55
2022-10-17T02:19:58.884Z,16.52
2022-10-17T02:22:54.115Z,16.49
2022-10-17T02:25:44.760Z,16.49
2022-10-17T02:28:33.668Z,16.48
2022-10-17T02:31:22.393Z,16.48
2022-10-17T02:33:57.753Z,16.50
2022-10-17T02:36:32.629Z,16.55
2022-10-17T02:39:03.367Z,16.52
2022-10-17T02:41:31.626Z,16.60
2022-10-17T02:44:01.636Z,16.63
2022-10-17T02:46:30.659Z,16.66
2022-10-17T02:49:13.026Z,16.67
2022-10-17T02:51:50.290Z,16.68
2022-10-17T02:54:48.353Z,16.68
2022-10-17T02:57:27.666Z,16.71
2022-10-17T02:59:58.397Z,16.74
2022-10-17T03:02:25.439Z,16.76
2022-10-17T03:04:52.436Z,16.80
2022-10-17T03:07:19.300Z,16.82
2022-10-17T03:09:46.232Z,16.83
2022-10-17T03:12:13.094Z,16.86
2022-10-17T03:14:39.974Z,16.87
2022-10-17T03:17:06.898Z,16.89
2022-10-17T03:19:33.831Z,16.92
2022-10-17T03:22:00.762Z,16.93
2022-10-17T03:24:27.652Z,16.94
2022-10-17T03:26:54.556Z,16.97
2022-10-17T03:29:22.150Z,16.99
2022-10-17T03:31:49.045Z,17.00
2022-10-17T03:34:18.743Z,17.01
2022-10-17T03:36:46.097Z,17.03
2022-10-17T03:39:13.103Z,17.05
2022-10-17T03:41:40.007Z,17.05
2022-10-17T03:44:06.952Z,17.06
2022-10-17T03:46:33.869Z,17.08
2022-10-17T03:49:01.166Z,17.08
2022-10-17T03:51:28.527Z,17.07
2022-10-17T03:54:02.148Z,17.07
2022-10-17T03:56:29.144Z,17.11
2022-10-17T03:59:01.290Z,17.12
2022-10-17T04:01:30.089Z,17.17
2022-10-17T04:03:57.909Z,17.20
2022-10-17T04:06:29.026Z,17.23
2022-10-17T04:08:56.296Z,17.27
2022-10-17T04:11:32.018Z,17.30
2022-10-17T04:14:00.716Z,17.33
2022-10-17T04:16:29.400Z,17.35
2022-10-17T04:19:03.177Z,17.38
2022-10-17T04:21:35.848Z,17.42
2022-10-17T04:24:06.689Z,17.46
2022-10-17T04:26:46.134Z,17.49
2022-10-17T04:29:15.269Z,17.53
2022-10-17T04:31:44.444Z,17.56
2022-10-17T04:34:21.478Z,17.58
2022-10-17T04:36:48.463Z,17.57
2022-10-17T04:39:15.745Z,17.62
2022-10-17T04:41:42.724Z,17.64
2022-10-17T04:44:11.008Z,17.65
2022-10-17T04:46:41.660Z,17.65
2022-10-17T04:49:09.136Z,17.66
2022-10-17T04:51:38.337Z,17.66
2022-10-17T04:54:13.583Z,17.65
2022-10-17T04:56:43.282Z,17.65
2022-10-17T04:59:10.299Z,17.64
2022-10-17T05:01:39.391Z,17.66
2022-10-17T05:04:06.943Z,17.67
2022-10-17T05:06:34.634Z,17.71
2022-10-17T05:09:28.720Z,17.73
2022-10-17T05:11:55.727Z,17.74
2022-10-17T05:14:22.935Z,17.77
2022-10-17T05:16:50.028Z,17.82
2022-10-17T05:19:18.388Z,17.87
2022-10-17T05:21:47.980Z,17.89
2022-10-17T05:24:15.360Z,17.91
2022-10-17T05:26:42.258Z,17.94
2022-10-17T05:29:10.301Z,17.95
2022-10-17T05:31:42.178Z,17.94
2022-10-17T05:34:11.569Z,17.93
2022-10-17T05:36:41.783Z,17.92
2022-10-17T05:39:09.415Z,17.89
2022-10-17T05:41:37.562Z,17.90
2022-10-17T05:44:05.753Z,17.90
2022-10-17T05:46:40.766Z,17.91
2022-10-17T05:49:19.740Z,17.96
2022-10-17T05:51:59.426Z,17.99
2022-10-17T05:54:26.757Z,17.98
2022-10-17T05:56:57.165Z,18.05
2022-10-17T05:59:28.507Z,18.09
2022-10-17T06:02:04.614Z,18.10
2022-10-17T06:04:31.644Z,18.13
2022-10-17T06:07:00.974Z,18.05
2022-10-17T06:09:28.759Z,18.12
2022-10-17T06:11:56.634Z,18.11
2022-10-17T06:14:24.041Z,18.12
2022-10-17T06:16:55.241Z,18.09
2022-10-17T06:19:22.144Z,18.09
2022-10-17T06:21:49.035Z,18.10
2022-10-17T06:24:20.468Z,18.13
2022-10-17T06:26:49.733Z,18.14
2022-10-17T06:29:17.311Z,18.17
2022-10-17T06:31:48.308Z,18.17
2022-10-17T06:34:15.465Z,18.19
2022-10-17T06:36:42.575Z,18.18
2022-10-17T06:39:10.436Z,18.19
2022-10-17T06:41:44.436Z,18.21
2022-10-17T06:44:12.331Z,18.23
2022-10-17T06:46:49.407Z,18.26
2022-10-17T06:49:17.828Z,18.29
2022-10-17T06:51:52.302Z,18.32
2022-10-17T06:54:23.480Z,18.37
2022-10-17T06:57:26.222Z,18.39
2022-10-17T07:00:03.860Z,18.46
2022-10-17T07:02:39.876Z,18.49
2022-10-17T07:05:07.063Z,18.52
2022-10-17T07:07:36.104Z,18.57
2022-10-17T07:10:08.552Z,18.60
2022-10-17T07:12:37.336Z,18.63
2022-10-17T07:15:05.543Z,18.67
2022-10-17T07:17:32.674Z,18.69
2022-10-17T07:19:59.840Z,18.73
2022-10-17T07:22:26.881Z,18.78
2022-10-17T07:24:57.549Z,18.75
2022-10-17T07:27:29.560Z,18.85
2022-10-17T07:29:56.630Z,18.90
2022-10-17T07:32:32.843Z,18.96
2022-10-17T07:34:59.856Z,19.03
2022-10-17T07:37:27.012Z,19.11
2022-10-17T07:39:56.604Z,19.16
2022-10-17T07:42:24.228Z,19.29
2022-10-17T07:44:51.172Z,19.38
2022-10-17T07:47:18.648Z,19.46
2022-10-17T07:49:47.426Z,19.55
2022-10-17T07:52:16.171Z,19.61
2022-10-17T07:54:43.376Z,19.68
2022-10-17T07:57:10.567Z,19.78
2022-10-17T07:59:38.499Z,19.86
2022-10-17T08:02:07.981Z,19.94
2022-10-17T08:04:36.383Z,20.02
2022-10-17T08:07:19.110Z,20.06
2022-10-17T08:09:48.844Z,20.15
2022-10-17T08:12:15.795Z,20.25
2022-10-17T08:14:43.474Z,20.32
2022-10-17T08:17:10.692Z,20.41
2022-10-17T08:19:41.179Z,20.49
2022-10-17T08:22:08.392Z,20.57
2022-10-17T08:24:35.528Z,20.69
2022-10-17T08:27:03.913Z,20.76
2022-10-17T08:29:32.755Z,20.88
2022-10-17T08:32:01.089Z,20.96
2022-10-17T08:34:28.814Z,21.04
2022-10-17T08:36:55.684Z,21.13
2022-10-17T08:39:22.607Z,21.21
2022-10-17T08:42:05.863Z,21.29
2022-10-17T08:44:55.467Z,21.37
2022-10-17T08:47:37.602Z,21.45
2022-10-17T08:50:10.528Z,21.52
2022-10-17T08:52:57.521Z,21.61
2022-10-17T08:55:34.752Z,21.69
2022-10-17T08:58:01.735Z,21.76
2022-10-17T09:00:31.007Z,21.84
2022-10-17T09:03:37.767Z,21.92
2022-10-17T09:06:25.239Z,22.00
2022-10-17T09:09:30.133Z,22.10
2022-10-17T09:12:17.151Z,22.19
2022-10-17T09:15:22.255Z,22.27
2022-10-17T09:18:11.322Z,22.36
2022-10-17T09:20:46.044Z,22.46
2022-10-17T09:23:20.104Z,22.54
2022-10-17T09:25:57.164Z,22.63
2022-10-17T09:28:34.982Z,22.73
2022-10-17T09:31:19.087Z,22.80
2022-10-17T09:33:54.288Z,22.86
2022-10-17T09:36:34.498Z,22.91
2022-10-17T09:39:10.593Z,22.97
2022-10-17T09:41:46.429Z,23.00
2022-10-17T09:44:35.150Z,23.10
2022-10-17T09:47:35.223Z,23.16
2022-10-17T09:50:02.272Z,23.22
2022-10-17T09:52:36.757Z,23.32
2022-10-17T09:55:20.090Z,23.40
2022-10-17T09:57:56.523Z,23.49
2022-10-17T10:00:33.425Z,23.55
2022-10-17T10:03:14.826Z,23.63
2022-10-17T10:05:43.433Z,23.73
2022-10-17T10:08:19.243Z,23.80
2022-10-17T10:10:46.157Z,23.88
2022-10-17T10:13:17.326Z,23.96
2022-10-17T10:15:50.432Z,24.04
2022-10-17T10:21:14.776Z,24.06
2022-10-17T10:23:45.186Z,24.22
2022-10-17T10:26:21.537Z,24.27
2022-10-17T10:29:40.104Z,24.33
2022-10-17T10:32:22.598Z,24.39
2022-10-17T10:34:59.524Z,24.45
2022-10-17T10:37:43.493Z,24.47
2022-10-17T10:40:47.092Z,24.56
2022-10-17T10:43:25.439Z,24.57
2022-10-17T10:45:53.449Z,24.62
2022-10-17T10:48:26.047Z,24.61
2022-10-17T10:51:05.844Z,24.67
2022-10-17T10:53:43.008Z,24.70
2022-10-17T10:56:32.195Z,24.73
2022-10-17T10:59:19.098Z,24.72
2022-10-17T11:01:56.600Z,24.81
2022-10-17T11:04:46.937Z,24.84
2022-10-17T11:07:23.304Z,24.88
2022-10-17T11:10:37.884Z,24.91
2022-10-17T11:13:29.054Z,24.97
2022-10-17T11:16:22.069Z,25.01
2022-10-17T11:19:25.663Z,25.02
2022-10-17T11:22:09.223Z,25.12
2022-10-17T11:24:59.680Z,25.20
2022-10-17T11:27:29.424Z,25.33
2022-10-17T11:29:57.391Z,25.43
2022-10-17T11:32:38.010Z,25.52
2022-10-17T11:35:18.575Z,25.62
2022-10-17T11:37:53.993Z,25.70
2022-10-17T11:40:35.618Z,25.75
2022-10-17T11:43:12.411Z,25.82
2022-10-17T11:45:53.104Z,25.89
2022-10-17T11:48:34.786Z,25.93
2022-10-17T11:54:19.187Z,25.96
2022-10-17T11:57:14.862Z,26.00
2022-10-17T11:59:52.747Z,26.04
2022-10-17T12:02:32.729Z,26.08
2022-10-17T12:05:20.456Z,26.14
2022-10-17T12:08:18.095Z,26.17
2022-10-17T12:11:01.230Z,26.20
2022-10-17T12:13:28.427Z,26.26
2022-10-17T12:15:56.723Z,26.33
2022-10-17T12:18:29.893Z,26.32
2022-10-17T12:20:59.164Z,26.43
2022-10-17T12:23:31.869Z,26.44
2022-10-17T12:26:05.543Z,26.45
2022-10-17T12:28:39.475Z,26.61
2022-10-17T12:31:29.631Z,26.68
2022-10-17T12:34:02.530Z,26.75
2022-10-17T12:36:29.331Z,26.83
2022-10-17T12:39:02.004Z,26.88
2022-10-17T12:41:51.541Z,26.92
2022-10-17T12:44:21.346Z,26.98
2022-10-17T12:46:51.578Z,27.00
2022-10-17T12:49:47.819Z,27.04
2022-10-17T12:52:26.666Z,27.04
2022-10-17T12:55:12.024Z,27.06
2022-10-17T12:58:05.487Z,27.06
2022-10-17T13:00:43.805Z,27.09
2022-10-17T13:03:35.181Z,27.09
2022-10-17T13:06:06.659Z,27.11
2022-10-17T13:08:38.771Z,27.13
2022-10-17T13:11:07.896Z,27.16
2022-10-17T13:13:48.897Z,27.16
2022-10-17T13:16:59.267Z,27.17
2022-10-17T13:19:51.117Z,27.22
2022-10-17T13:22:29.022Z,27.29
2022-10-17T13:25:12.390Z,27.34
2022-10-17T13:27:39.268Z,27.41
2022-10-17T13:30:21.947Z,27.44
2022-10-17T13:32:49.037Z,27.49
2022-10-17T13:35:41.970Z,27.49
2022-10-17T13:38:13.369Z,27.51
2022-10-17T13:40:50.137Z,27.52
2022-10-17T13:43:25.892Z,27.50
2022-10-17T13:46:02.293Z,27.52
2022-10-17T13:48:38.257Z,27.51
2022-10-17T13:51:10.332Z,27.52
2022-10-17T13:53:42.441Z,27.50
2022-10-17T13:56:29.841Z,27.49
2022-10-17T13:59:06.632Z,27.43
2022-10-17T14:01:33.796Z,27.46
2022-10-17T14:04:08.940Z,27.45
2022-10-17T14:06:47.561Z,27.46
2022-10-17T14:09:27.729Z,27.46
2022-10-17T14:12:12.759Z,27.45
2022-10-17T14:15:05.158Z,27.41
2022-10-17T14:17:30.762Z,27.44
2022-10-17T14:20:33.990Z,27.43
2022-10-17T14:23:17.384Z,27.44
2022-10-17T14:25:40.990Z,27.41
2022-10-17T14:28:09.493Z,27.45
2022-10-17T14:30:55.862Z,27.43
2022-10-17T14:33:31.914Z,27.41
2022-10-17T14:36:01.625Z,27.39
2022-10-17T14:38:30.069Z,27.36
2022-10-17T14:41:41.531Z,27.28
2022-10-17T14:44:06.625Z,27.26
2022-10-17T14:46:35.969Z,27.23
2022-10-17T14:49:21.729Z,27.16
2022-10-17T14:52:24.884Z,27.17
2022-10-17T14:54:51.862Z,27.17
2022-10-17T14:57:24.063Z,27.15
2022-10-17T14:59:55.456Z,27.13
2022-10-17T15:02:29.030Z,27.11
2022-10-17T15:04:56.308Z,27.11
2022-10-17T15:07:23.926Z,27.08
2022-10-17T15:09:52.907Z,27.05
2022-10-17T15:12:24.829Z,27.02
2022-10-17T15:14:52.952Z,26.97
2022-10-17T15:17:27.511Z,26.96
2022-10-17T15:19:54.755Z,26.91
2022-10-17T15:22:21.939Z,26.91
2022-10-17T15:24:49.056Z,26.87
2022-10-17T15:27:18.629Z,26.83
2022-10-17T15:29:46.437Z,26.79
2022-10-17T15:32:13.670Z,26.78
2022-10-17T15:34:41.336Z,26.68
2022-10-17T15:37:23.361Z,26.67
2022-10-17T15:39:55.107Z,26.64
2022-10-17T15:42:30.114Z,26.57
2022-10-17T15:44:58.193Z,26.55
2022-10-17T15:47:30.886Z,26.49
2022-10-17T15:49:58.548Z,26.47
2022-10-17T15:52:26.180Z,26.44
2022-10-17T15:54:54.154Z,26.38
2022-10-17T15:57:28.778Z,26.39
2022-10-17T15:59:59.056Z,26.35
2022-10-17T16:02:26.151Z,26.35
2022-10-17T16:04:53.781Z,26.35
2022-10-17T16:07:21.543Z,26.28
2022-10-17T16:09:48.623Z,26.23
2022-10-17T16:12:28.083Z,26.23
2022-10-17T16:14:55.476Z,26.21
2022-10-17T16:17:22.352Z,26.19
2022-10-17T16:19:49.946Z,26.16
2022-10-17T16:22:36.639Z,26.13
2022-10-17T16:25:11.720Z,26.08
2022-10-17T16:27:39.113Z,26.03
2022-10-17T16:30:08.040Z,25.99
2022-10-17T16:32:35.160Z,25.96
2022-10-17T16:35:02.059Z,25.89
2022-10-17T16:37:28.939Z,25.90
2022-10-17T16:39:55.812Z,25.89
2022-10-17T16:42:22.992Z,25.86
2022-10-17T16:44:50.781Z,25.84
2022-10-17T16:47:19.164Z,25.80
2022-10-17T16:49:46.147Z,25.78
2022-10-17T16:52:13.368Z,25.76
2022-10-17T16:54:40.268Z,25.74
2022-10-17T16:57:07.161Z,25.71
2022-10-17T16:59:34.071Z,25.66
2022-10-17T17:02:00.940Z,25.65
2022-10-17T17:04:27.808Z,25.62
2022-10-17T17:06:54.691Z,25.53
2022-10-17T17:09:21.601Z,25.59
2022-10-17T17:11:48.475Z,25.57
2022-10-17T17:14:15.479Z,25.56
2022-10-17T17:16:43.376Z,25.55
2022-10-17T17:19:17.018Z,25.55
2022-10-17T17:21:49.950Z,25.54
2022-10-17T17:24:20.922Z,25.53
2022-10-17T17:26:53.694Z,25.53
2022-10-17T17:29:21.348Z,25.53
2022-10-17T17:31:48.778Z,25.53
2022-10-17T17:34:18.062Z,25.52
2022-10-17T17:36:45.394Z,25.51
2022-10-17T17:39:14.908Z,25.51
2022-10-17T17:41:43.698Z,25.50
2022-10-17T17:44:16.424Z,25.49
2022-10-17T17:46:44.512Z,25.50
2022-10-17T17:49:12.106Z,25.48
2022-10-17T17:51:41.419Z,25.48
2022-10-17T17:54:11.474Z,25.43
2022-10-17T17:56:39.279Z,25.41
2022-10-17T17:59:06.204Z,25.40
2022-10-17T18:01:39.114Z,25.37
2022-10-17T18:04:08.736Z,25.32
2022-10-17T18:06:37.550Z,25.24
2022-10-17T18:09:06.071Z,25.25
2022-10-17T18:11:33.303Z,25.20
2022-10-17T18:14:04.658Z,25.18
2022-10-17T18:16:33.974Z,25.15
2022-10-17T18:19:07.020Z,25.11
2022-10-17T18:21:35.020Z,25.06
2022-10-17T18:24:02.398Z,25.06
2022-10-17T18:26:29.296Z,25.05
2022-10-17T18:28:56.555Z,25.02
2022-10-17T18:31:28.296Z,25.01
2022-10-17T18:33:57.802Z,24.99
2022-10-17T18:36:26.205Z,24.94
2022-10-17T18:38:54.483Z,24.95
2022-10-17T18:41:24.186Z,24.96
2022-10-17T18:43:53.096Z,24.94
2022-10-17T18:46:23.531Z,24.93
2022-10-17T18:48:50.911Z,24.93
2022-10-17T18:51:21.666Z,24.91
2022-10-17T18:53:52.427Z,24.90
2022-10-17T18:56:20.770Z,24.89
2022-10-17T18:58:47.890Z,24.89
2022-10-17T19:01:21.729Z,24.86
2022-10-17T19:03:53.196Z,24.86
2022-10-17T19:06:23.856Z,24.84
2022-10-17T19:08:50.879Z,24.85
2022-10-17T19:11:21.431Z,24.83
2022-10-17T19:13:48.880Z,24.81
2022-10-17T19:16:22.772Z,24.75
2022-10-17T19:18:55.975Z,24.76
2022-10-17T19:21:23.070Z,24.74
2022-10-17T19:23:57.182Z,24.72
2022-10-17T19:26:25.647Z,24.69
2022-10-17T19:28:53.714Z,24.64
2022-10-17T19:31:26.838Z,24.63
2022-10-17T19:33:55.608Z,24.60
2022-10-17T19:36:28.940Z,24.57
2022-10-17T19:38:59.639Z,24.55
2022-10-17T19:41:26.790Z,24.51
2022-10-17T19:43:53.705Z,24.47
2022-10-17T19:46:23.955Z,24.41
2022-10-17T19:48:51.600Z,24.35
2022-10-17T19:51:21.624Z,24.28
2022-10-17T19:53:48.528Z,24.25
2022-10-17T19:56:18.566Z,24.21
2022-10-17T19:58:46.874Z,24.17
2022-10-17T20:01:18.086Z,24.14
2022-10-17T20:03:45.208Z,24.11
2022-10-17T20:06:12.728Z,24.10
2022-10-17T20:08:40.822Z,24.09
2022-10-17T20:11:17.125Z,24.06
2022-10-17T20:13:44.926Z,24.02
2022-10-17T20:16:16.366Z,24.00
2022-10-17T20:18:43.686Z,23.96
2022-10-17T20:21:14.943Z,23.96
2022-10-17T20:23:42.304Z,23.94
2022-10-17T20:26:25.889Z,23.93
2022-10-17T20:29:02.588Z,23.91
2022-10-17T20:31:30.069Z,23.87
2022-10-17T20:33:58.740Z,23.89
2022-10-17T20:36:26.318Z,23.86
2022-10-17T20:38:58.556Z,23.85
2022-10-17T20:41:26.917Z,23.86
2022-10-17T20:43:54.995Z,23.85
2022-10-17T20:46:35.830Z,23.81
2022-10-17T20:49:07.875Z,23.82
2022-10-17T20:51:36.002Z,23.82
2022-10-17T20:54:03.835Z,23.76
2022-10-17T20:56:33.019Z,23.79
2022-10-17T20:59:04.564Z,23.77
2022-10-17T21:01:33.596Z,23.75
2022-10-17T21:04:21.348Z,23.75
2022-10-17T21:06:48.293Z,23.73
2022-10-17T21:09:15.393Z,23.73
2022-10-17T21:11:43.118Z,23.71
2022-10-17T21:14:11.816Z,23.71
2022-10-17T21:16:40.235Z,23.70
2022-10-17T21:19:07.145Z,23.69
2022-10-17T21:21:39.522Z,23.70
2022-10-17T21:24:14.299Z,23.67
2022-10-17T21:26:42.693Z,23.65
2022-10-17T21:29:12.419Z,23.64
2022-10-17T21:31:42.523Z,23.63
2022-10-17T21:34:20.829Z,23.60
2022-10-17T21:36:48.386Z,23.60
2022-10-17T21:39:15.856Z,23.59
2022-10-17T21:41:44.202Z,23.59
2022-10-17T21:44:18.450Z,23.57
2022-10-17T21:46:46.392Z,23.54
2022-10-17T21:49:16.970Z,23.51
2022-10-17T21:51:44.745Z,23.54
2022-10-17T21:54:12.213Z,23.52
2022-10-17T21:56:39.078Z,23.50
2022-10-17T21:59:06.560Z,23.48
2022-10-17T22:01:37.701Z,23.44
2022-10-17T22:04:07.855Z,23.43
2022-10-17T22:06:40.157Z,23.41
2022-10-17T22:09:16.333Z,23.35
2022-10-17T22:11:47.598Z,23.38
2022-10-17T22:14:17.797Z,23.34
2022-10-17T22:16:46.740Z,23.28
2022-10-17T22:19:20.063Z,23.25
2022-10-17T22:21:47.085Z,23.21
2022-10-17T22:24:17.876Z,23.17
2022-10-17T22:26:44.931Z,23.11
2022-10-17T22:29:12.961Z,23.13
2022-10-17T22:31:40.534Z,23.11
2022-10-17T22:34:08.232Z,23.04
2022-10-17T22:36:35.812Z,23.07
2022-10-17T22:39:04.005Z,23.05
2022-10-17T22:41:31.257Z,23.03
2022-10-17T22:43:58.140Z,23.02
2022-10-17T22:46:25.523Z,23.01
2022-10-17T22:48:52.391Z,22.98
2022-10-17T22:51:19.305Z,22.95
2022-10-17T22:53:46.223Z,22.94
2022-10-17T22:56:17.773Z,22.93
2022-10-17T22:58:44.890Z,22.92
2022-10-17T23:01:18.919Z,22.93
2022-10-17T23:03:46.063Z,22.92
2022-10-17T23:06:13.276Z,22.92
2022-10-17T23:08:40.674Z,22.92
2022-10-17T23:11:08.285Z,22.92
2022-10-17T23:13:35.449Z,22.92
2022-10-17T23:16:03.627Z,22.91
2022-10-17T23:21:02.522Z,22.86
2022-10-17T23:23:29.460Z,22.84
2022-10-17T23:26:03.868Z,22.82
2022-10-17T23:28:31.988Z,22.82
2022-10-17T23:30:58.909Z,22.81
2022-10-17T23:33:25.788Z,22.81
2022-10-17T23:35:52.639Z,22.76
2022-10-17T23:38:19.516Z,22.79
2022-10-17T23:40:46.375Z,22.81
2022-10-17T23:43:13.249Z,22.81
2022-10-17T23:48:11.883Z,22.81
2022-10-17T23:50:38.743Z,22.81
2022-10-17T23:53:05.602Z,22.79
2022-10-17T23:55:32.473Z,22.78
2022-10-17T23:57:59.335Z,22.77
